createdAt,value
2018-06-19T00:00:06.734Z,16.69
2018-06-19T00:01:06.658Z,16.69
2018-06-19T00:02:06.615Z,16.69
2018-06-19T00:03:06.564Z,16.76
2018-06-19T00:04:06.519Z,16.83
2018-06-19T00:05:06.520Z,16.83
2018-06-19T00:06:06.426Z,16.89
2018-06-19T00:07:06.383Z,16.83
2018-06-19T00:08:06.343Z,16.79
2018-06-19T00:09:06.292Z,16.81
2018-06-19T00:10:06.379Z,16.83
2018-06-19T00:11:06.201Z,16.84
2018-06-19T00:12:06.155Z,16.81
2018-06-19T00:13:06.106Z,16.84
2018-06-19T00:14:06.066Z,16.79
2018-06-19T00:15:06.048Z,16.83
2018-06-19T00:16:06.012Z,16.76
2018-06-19T00:17:05.934Z,16.79
2018-06-19T00:18:05.879Z,16.75
2018-06-19T00:19:05.839Z,16.78
2018-06-19T00:20:05.788Z,16.81
2018-06-19T00:21:05.781Z,16.74
2018-06-19T00:22:05.695Z,16.72
2018-06-19T00:23:05.652Z,16.66
2018-06-19T00:24:05.604Z,16.66
2018-06-19T00:25:05.557Z,16.65
2018-06-19T00:26:05.551Z,16.66
2018-06-19T00:27:05.471Z,16.61
2018-06-19T00:28:05.422Z,16.66
2018-06-19T00:29:05.374Z,16.61
2018-06-19T00:30:05.352Z,16.69
2018-06-19T00:31:05.315Z,16.54
2018-06-19T00:32:05.237Z,16.65
2018-06-19T00:33:05.192Z,16.66
2018-06-19T00:34:05.145Z,16.64
2018-06-19T00:35:05.104Z,16.66
2018-06-19T00:36:05.087Z,16.56
2018-06-19T00:37:05.043Z,16.54
2018-06-19T00:38:04.965Z,16.49
2018-06-19T00:39:04.918Z,16.41
2018-06-19T00:40:04.901Z,16.42
2018-06-19T00:41:04.825Z,16.47
2018-06-19T00:42:04.781Z,16.47
2018-06-19T00:43:04.740Z,16.41
2018-06-19T00:44:04.689Z,16.43
2018-06-19T00:45:04.686Z,16.43
2018-06-19T00:46:04.594Z,16.41
2018-06-19T00:47:04.547Z,16.42
2018-06-19T00:48:04.505Z,16.41
2018-06-19T00:49:04.460Z,16.42
2018-06-19T00:50:04.451Z,16.42
2018-06-19T00:51:04.364Z,16.54
2018-06-19T00:52:04.320Z,16.56
2018-06-19T00:53:04.273Z,16.56
2018-06-19T00:54:04.230Z,16.54
2018-06-19T00:55:04.216Z,16.56
2018-06-19T00:56:04.135Z,16.53
2018-06-19T00:57:04.090Z,16.56
2018-06-19T00:58:04.071Z,16.65
2018-06-19T00:59:03.997Z,16.61
2018-06-19T01:00:03.952Z,16.66
2018-06-19T01:01:03.908Z,16.68
2018-06-19T01:02:03.857Z,16.68
2018-06-19T01:03:03.848Z,16.74
2018-06-19T01:04:03.768Z,16.72
2018-06-19T01:05:03.733Z,16.76
2018-06-19T01:06:03.674Z,16.75
2018-06-19T01:07:03.631Z,16.78
2018-06-19T01:08:03.618Z,16.84
2018-06-19T01:09:03.538Z,16.87
2018-06-19T01:10:03.499Z,16.87
2018-06-19T01:11:03.494Z,16.83
2018-06-19T01:12:03.403Z,16.79
2018-06-19T01:13:03.355Z,16.83
2018-06-19T01:14:03.310Z,16.84
2018-06-19T01:15:03.273Z,16.79
2018-06-19T01:16:03.253Z,16.84
2018-06-19T01:17:03.176Z,16.87
2018-06-19T01:18:03.126Z,16.86
2018-06-19T01:19:03.083Z,16.81
2018-06-19T01:20:03.068Z,16.79
2018-06-19T01:21:02.995Z,16.81
2018-06-19T01:22:02.943Z,16.79
2018-06-19T01:23:02.931Z,16.81
2018-06-19T01:24:02.852Z,16.79
2018-06-19T01:25:02.812Z,16.75
2018-06-19T01:26:02.759Z,16.83
2018-06-19T01:27:02.717Z,16.72
2018-06-19T01:28:02.703Z,16.68
2018-06-19T01:29:02.627Z,16.74
2018-06-19T01:30:02.582Z,16.65
2018-06-19T01:31:02.562Z,16.61
2018-06-19T01:32:02.521Z,16.64
2018-06-19T01:33:02.441Z,16.61
2018-06-19T01:34:02.432Z,16.57
2018-06-19T01:35:02.348Z,16.53
2018-06-19T01:36:02.302Z,16.49
2018-06-19T01:37:02.257Z,16.50
2018-06-19T01:38:02.227Z,16.54
2018-06-19T01:39:02.207Z,16.46
2018-06-19T01:40:02.118Z,16.49
2018-06-19T01:41:02.072Z,16.51
2018-06-19T01:42:02.023Z,16.38
2018-06-19T01:43:01.980Z,16.43
2018-06-19T01:44:01.969Z,16.46
2018-06-19T01:45:01.923Z,16.36
2018-06-19T01:46:01.842Z,16.29
2018-06-19T01:47:01.798Z,16.28
2018-06-19T01:48:01.756Z,16.28
2018-06-19T01:49:01.708Z,16.26
2018-06-19T01:50:01.699Z,16.24
2018-06-19T01:51:01.612Z,16.26
2018-06-19T01:52:01.568Z,16.16
2018-06-19T01:53:01.522Z,16.20
2018-06-19T01:54:01.476Z,16.16
2018-06-19T01:55:01.471Z,16.17
2018-06-19T01:56:01.381Z,16.17
2018-06-19T01:57:01.335Z,16.20
2018-06-19T01:58:01.290Z,16.17
2018-06-19T01:59:01.245Z,16.15
2018-06-19T02:00:01.242Z,16.12
2018-06-19T02:01:01.153Z,16.17
2018-06-19T02:02:01.110Z,16.04
2018-06-19T02:03:01.060Z,15.97
2018-06-19T02:04:01.012Z,15.98
2018-06-19T02:05:01.015Z,15.97
2018-06-19T02:06:00.920Z,16.02
2018-06-19T02:07:07.749Z,15.91
2018-06-19T02:08:00.829Z,15.88
2018-06-19T02:09:00.781Z,15.94
2018-06-19T02:10:00.767Z,15.92
2018-06-19T02:11:00.689Z,15.90
2018-06-19T02:12:00.643Z,15.91
2018-06-19T02:13:00.598Z,16.00
2018-06-19T02:14:00.551Z,15.97
2018-06-19T02:15:00.542Z,16.00
2018-06-19T02:16:00.459Z,16.02
2018-06-19T02:17:00.412Z,15.97
2018-06-19T02:18:00.372Z,15.97
2018-06-19T02:19:00.323Z,15.94
2018-06-19T02:20:00.323Z,16.02
2018-06-19T02:21:00.237Z,15.95
2018-06-19T02:22:00.181Z,15.97
2018-06-19T02:23:00.133Z,15.90
2018-06-19T02:24:00.090Z,15.79
2018-06-19T02:25:00.077Z,15.83
2018-06-19T02:25:59.994Z,15.86
2018-06-19T02:26:59.952Z,15.88
2018-06-19T02:27:59.902Z,15.83
2018-06-19T02:28:59.858Z,15.75
2018-06-19T02:29:59.840Z,15.82
2018-06-19T02:30:59.767Z,15.79
2018-06-19T02:31:59.718Z,15.86
2018-06-19T02:32:59.702Z,15.83
2018-06-19T02:33:59.631Z,15.76
2018-06-19T02:34:59.579Z,15.77
2018-06-19T02:35:59.533Z,15.79
2018-06-19T02:36:59.485Z,15.83
2018-06-19T02:37:59.471Z,15.75
2018-06-19T02:38:59.391Z,15.72
2018-06-19T02:39:59.345Z,15.64
2018-06-19T02:40:59.298Z,15.61
2018-06-19T02:41:59.252Z,15.72
2018-06-19T02:42:59.238Z,15.62
2018-06-19T02:43:59.159Z,15.57
2018-06-19T02:44:59.115Z,15.59
2018-06-19T02:45:59.067Z,15.57
2018-06-19T02:46:59.021Z,15.57
2018-06-19T02:47:59.014Z,15.70
2018-06-19T02:48:58.931Z,15.58
2018-06-19T02:49:58.881Z,15.55
2018-06-19T02:50:58.838Z,15.55
2018-06-19T02:51:58.789Z,15.54
2018-06-19T02:52:58.776Z,15.52
2018-06-19T02:53:58.700Z,15.61
2018-06-19T02:54:58.651Z,15.51
2018-06-19T02:55:58.601Z,15.59
2018-06-19T02:56:58.589Z,15.58
2018-06-19T02:57:58.541Z,15.47
2018-06-19T02:58:58.463Z,15.49
2018-06-19T02:59:58.416Z,15.55
2018-06-19T03:00:58.373Z,15.52
2018-06-19T03:01:58.354Z,15.46
2018-06-19T03:02:58.282Z,15.54
2018-06-19T03:03:58.262Z,15.44
2018-06-19T03:04:58.184Z,15.47
2018-06-19T03:05:58.138Z,15.47
2018-06-19T03:06:58.091Z,15.57
2018-06-19T03:07:58.048Z,15.54
2018-06-19T03:08:58.037Z,15.61
2018-06-19T03:09:57.953Z,15.57
2018-06-19T03:10:57.905Z,15.65
2018-06-19T03:11:57.857Z,15.58
2018-06-19T03:12:57.819Z,15.57
2018-06-19T03:13:57.808Z,15.62
2018-06-19T03:14:57.719Z,15.57
2018-06-19T03:15:57.672Z,15.57
2018-06-19T03:16:57.626Z,15.62
2018-06-19T03:17:57.581Z,15.70
2018-06-19T03:18:57.563Z,15.64
2018-06-19T03:19:57.487Z,15.62
2018-06-19T03:20:57.440Z,15.61
2018-06-19T03:21:57.399Z,15.58
2018-06-19T03:22:57.348Z,15.68
2018-06-19T03:23:57.335Z,15.75
2018-06-19T03:24:57.254Z,15.72
2018-06-19T03:25:57.237Z,15.76
2018-06-19T03:26:57.161Z,15.73
2018-06-19T03:27:57.116Z,15.77
2018-06-19T03:28:57.068Z,15.72
2018-06-19T03:29:57.052Z,15.83
2018-06-19T03:30:56.974Z,15.88
2018-06-19T03:31:56.926Z,15.83
2018-06-19T03:32:56.881Z,15.84
2018-06-19T03:33:56.837Z,15.86
2018-06-19T03:34:56.820Z,15.82
2018-06-19T03:35:56.740Z,15.83
2018-06-19T03:36:56.697Z,15.83
2018-06-19T03:37:56.697Z,15.82
2018-06-19T03:38:56.603Z,15.86
2018-06-19T03:39:56.553Z,15.91
2018-06-19T03:40:56.508Z,15.97
2018-06-19T03:41:56.463Z,16.00
2018-06-19T03:42:56.453Z,15.95
2018-06-19T03:43:56.370Z,15.98
2018-06-19T03:44:56.322Z,16.02
2018-06-19T03:45:56.272Z,16.00
2018-06-19T03:46:56.235Z,16.05
2018-06-19T03:47:56.223Z,15.98
2018-06-19T03:48:56.135Z,15.97
2018-06-19T03:49:56.088Z,16.02
2018-06-19T03:50:56.042Z,16.05
2018-06-19T03:51:55.998Z,16.09
2018-06-19T03:52:55.985Z,16.15
2018-06-19T03:53:55.933Z,16.10
2018-06-19T03:54:55.856Z,16.20
2018-06-19T03:55:55.810Z,16.20
2018-06-19T03:56:55.763Z,16.24
2018-06-19T03:57:55.716Z,16.23
2018-06-19T03:58:55.709Z,16.32
2018-06-19T03:59:55.661Z,16.15
2018-06-19T04:00:55.578Z,16.16
2018-06-19T04:01:55.531Z,16.23
2018-06-19T04:02:55.489Z,16.26
2018-06-19T04:03:55.473Z,16.13
2018-06-19T04:04:55.394Z,16.23
2018-06-19T04:05:55.385Z,16.26
2018-06-19T04:06:55.301Z,16.17
2018-06-19T04:07:55.259Z,16.26
2018-06-19T04:08:55.207Z,16.17
2018-06-19T04:09:55.160Z,16.23
2018-06-19T04:10:55.146Z,16.26
2018-06-19T04:11:55.075Z,16.26
2018-06-19T04:12:55.031Z,16.29
2018-06-19T04:13:55.009Z,16.13
2018-06-19T04:14:54.930Z,16.31
2018-06-19T04:15:54.883Z,16.21
2018-06-19T04:16:54.872Z,16.13
2018-06-19T04:17:54.790Z,16.23
2018-06-19T04:18:54.741Z,16.20
2018-06-19T04:19:54.696Z,16.15
2018-06-19T04:20:54.653Z,16.16
2018-06-19T04:21:54.638Z,16.16
2018-06-19T04:22:54.560Z,16.12
2018-06-19T04:23:54.512Z,16.10
2018-06-19T04:24:54.468Z,16.01
2018-06-19T04:25:54.418Z,16.04
2018-06-19T04:26:54.406Z,16.04
2018-06-19T04:27:54.326Z,16.04
2018-06-19T04:28:54.313Z,16.04
2018-06-19T04:29:54.232Z,15.97
2018-06-19T04:30:54.190Z,16.08
2018-06-19T04:31:54.173Z,16.05
2018-06-19T04:32:54.101Z,16.08
2018-06-19T04:33:54.050Z,16.15
2018-06-19T04:34:54.002Z,16.15
2018-06-19T04:35:53.988Z,16.17
2018-06-19T04:36:53.940Z,16.17
2018-06-19T04:37:53.863Z,16.33
2018-06-19T04:38:53.854Z,16.24
2018-06-19T04:39:53.768Z,16.32
2018-06-19T04:40:53.724Z,16.33
2018-06-19T04:41:53.677Z,16.29
2018-06-19T04:42:53.630Z,16.38
2018-06-19T04:43:53.619Z,16.36
2018-06-19T04:44:53.540Z,16.35
2018-06-19T04:45:53.494Z,16.39
2018-06-19T04:46:53.480Z,16.35
2018-06-19T04:47:53.398Z,16.42
2018-06-19T04:48:53.354Z,16.43
2018-06-19T04:49:53.338Z,16.49
2018-06-19T04:50:53.260Z,16.53
2018-06-19T04:51:53.220Z,16.51
2018-06-19T04:52:53.170Z,16.57
2018-06-19T04:53:53.121Z,16.69
2018-06-19T04:54:53.107Z,16.72
2018-06-19T04:55:53.030Z,16.79
2018-06-19T04:56:52.986Z,16.76
2018-06-19T04:57:52.940Z,16.89
2018-06-19T04:58:52.904Z,16.89
2018-06-19T04:59:52.878Z,16.96
2018-06-19T05:00:52.806Z,16.90
2018-06-19T05:01:52.760Z,16.94
2018-06-19T05:02:52.708Z,16.96
2018-06-19T05:03:52.751Z,16.97
2018-06-19T05:04:52.615Z,17.04
2018-06-19T05:05:52.569Z,17.04
2018-06-19T05:06:52.527Z,17.05
2018-06-19T05:07:52.479Z,17.01
2018-06-19T05:08:52.467Z,17.16
2018-06-19T05:09:52.426Z,17.15
2018-06-19T05:10:52.340Z,17.11
2018-06-19T05:11:52.295Z,17.15
2018-06-19T05:12:52.291Z,17.08
2018-06-19T05:13:52.236Z,17.09
2018-06-19T05:14:52.161Z,17.15
2018-06-19T05:15:52.115Z,17.22
2018-06-19T05:16:52.101Z,17.27
2018-06-19T05:17:52.057Z,17.26
2018-06-19T05:18:51.977Z,17.30
2018-06-19T05:19:51.979Z,17.30
2018-06-19T05:20:51.884Z,17.31
2018-06-19T05:21:51.839Z,17.29
2018-06-19T05:22:51.793Z,17.29
2018-06-19T05:23:51.749Z,17.29
2018-06-19T05:24:51.732Z,17.41
2018-06-19T05:25:51.658Z,17.31
2018-06-19T05:26:51.611Z,17.44
2018-06-19T05:27:51.567Z,17.26
2018-06-19T05:28:51.552Z,17.31
2018-06-19T05:29:51.474Z,17.26
2018-06-19T05:30:51.463Z,17.12
2018-06-19T05:31:51.417Z,17.15
2018-06-19T05:32:51.342Z,17.09
2018-06-19T05:33:51.291Z,17.16
2018-06-19T05:34:51.247Z,17.15
2018-06-19T05:35:51.201Z,17.16
2018-06-19T05:36:51.200Z,17.20
2018-06-19T05:37:51.110Z,17.26
2018-06-19T05:38:51.066Z,17.27
2018-06-19T05:39:51.022Z,17.31
2018-06-19T05:40:50.974Z,17.36
2018-06-19T05:41:50.969Z,17.42
2018-06-19T05:42:50.885Z,17.33
2018-06-19T05:43:50.839Z,17.48
2018-06-19T05:44:50.793Z,17.34
2018-06-19T05:45:50.748Z,17.44
2018-06-19T05:46:50.741Z,17.39
2018-06-19T05:47:50.655Z,17.39
2018-06-19T05:48:50.613Z,17.42
2018-06-19T05:49:50.564Z,17.23
2018-06-19T05:50:50.523Z,17.30
2018-06-19T05:51:50.511Z,17.41
2018-06-19T05:52:50.482Z,17.42
2018-06-19T05:53:50.384Z,17.38
2018-06-19T05:54:50.336Z,17.42
2018-06-19T05:55:50.324Z,17.26
2018-06-19T05:56:50.281Z,17.34
2018-06-19T05:57:50.202Z,17.33
2018-06-19T05:58:50.158Z,17.42
2018-06-19T05:59:50.117Z,17.33
2018-06-19T06:00:50.100Z,17.44
2018-06-19T06:01:50.021Z,17.34
2018-06-19T06:02:49.973Z,17.42
2018-06-19T06:03:49.930Z,17.44
2018-06-19T06:04:49.884Z,17.54
2018-06-19T06:05:49.910Z,17.57
2018-06-19T06:06:49.795Z,17.52
2018-06-19T06:07:49.783Z,17.54
2018-06-19T06:08:49.704Z,17.46
2018-06-19T06:09:49.659Z,17.54
2018-06-19T06:10:49.612Z,17.57
2018-06-19T06:11:49.569Z,17.45
2018-06-19T06:12:49.574Z,17.48
2018-06-19T06:13:49.479Z,17.49
2018-06-19T06:14:49.434Z,17.64
2018-06-19T06:15:49.390Z,17.59
2018-06-19T06:16:49.348Z,17.57
2018-06-19T06:17:49.331Z,17.60
2018-06-19T06:18:49.250Z,17.68
2018-06-19T06:19:49.241Z,17.70
2018-06-19T06:20:49.165Z,17.71
2018-06-19T06:21:49.122Z,17.76
2018-06-19T06:22:49.074Z,17.74
2018-06-19T06:23:49.057Z,17.70
2018-06-19T06:24:48.983Z,17.71
2018-06-19T06:25:48.937Z,17.79
2018-06-19T06:26:48.935Z,17.79
2018-06-19T06:27:48.846Z,17.80
2018-06-19T06:28:48.803Z,17.78
2018-06-19T06:29:48.757Z,17.79
2018-06-19T06:30:48.718Z,17.76
2018-06-19T06:31:48.700Z,17.80
2018-06-19T06:32:48.626Z,17.79
2018-06-19T06:33:48.575Z,17.76
2018-06-19T06:34:48.563Z,17.71
2018-06-19T06:35:48.486Z,17.74
2018-06-19T06:36:48.442Z,17.83
2018-06-19T06:37:48.396Z,17.79
2018-06-19T06:38:48.353Z,17.85
2018-06-19T06:39:48.340Z,17.78
2018-06-19T06:40:48.261Z,17.78
2018-06-19T06:41:48.216Z,17.80
2018-06-19T06:42:48.172Z,17.90
2018-06-19T06:43:48.159Z,17.95
2018-06-19T06:44:48.096Z,17.90
2018-06-19T06:45:48.044Z,17.86
2018-06-19T06:46:47.992Z,17.89
2018-06-19T06:47:47.948Z,17.89
2018-06-19T06:48:47.934Z,18.01
2018-06-19T06:49:47.858Z,18.08
2018-06-19T06:50:47.814Z,18.11
2018-06-19T06:51:47.771Z,18.07
2018-06-19T06:52:47.760Z,18.19
2018-06-19T06:53:47.681Z,18.19
2018-06-19T06:54:47.638Z,18.11
2018-06-19T06:55:47.626Z,18.07
2018-06-19T06:56:47.556Z,18.19
2018-06-19T06:57:47.508Z,18.25
2018-06-19T06:58:47.458Z,18.26
2018-06-19T06:59:47.420Z,18.23
2018-06-19T07:00:47.417Z,18.26
2018-06-19T07:01:47.323Z,18.38
2018-06-19T07:02:47.280Z,18.49
2018-06-19T07:03:47.237Z,18.47
2018-06-19T07:04:47.194Z,18.52
2018-06-19T07:05:47.180Z,18.49
2018-06-19T07:06:47.103Z,18.52
2018-06-19T07:07:47.074Z,18.55
2018-06-19T07:08:47.016Z,18.68
2018-06-19T07:09:46.967Z,18.75
2018-06-19T07:10:46.982Z,18.78
2018-06-19T07:11:46.883Z,18.80
2018-06-19T07:12:46.868Z,18.70
2018-06-19T07:13:46.799Z,18.62
2018-06-19T07:14:46.747Z,18.65
2018-06-19T07:15:46.827Z,18.52
2018-06-19T07:16:46.661Z,18.49
2018-06-19T07:17:46.647Z,18.47
2018-06-19T07:18:46.571Z,18.60
2018-06-19T07:19:46.529Z,18.59
2018-06-19T07:20:46.525Z,18.56
2018-06-19T07:21:46.439Z,18.63
2018-06-19T07:22:46.397Z,18.65
2018-06-19T07:23:46.385Z,18.68
2018-06-19T07:24:46.309Z,18.58
2018-06-19T07:25:46.297Z,18.65
2018-06-19T07:26:46.223Z,18.75
2018-06-19T07:27:46.174Z,18.78
2018-06-19T07:28:46.130Z,18.74
2018-06-19T07:29:46.119Z,18.71
2018-06-19T07:30:46.094Z,18.93
2018-06-19T07:31:46.001Z,18.90
2018-06-19T07:32:45.956Z,18.83
2018-06-19T07:33:45.945Z,18.98
2018-06-19T07:34:45.868Z,19.00
2018-06-19T07:35:45.822Z,19.04
2018-06-19T07:36:45.811Z,19.12
2018-06-19T07:37:45.776Z,19.09
2018-06-19T07:38:45.727Z,19.16
2018-06-19T07:39:45.648Z,19.21
2018-06-19T07:40:45.604Z,19.27
2018-06-19T07:41:45.562Z,19.27
2018-06-19T07:42:45.551Z,19.29
2018-06-19T07:43:45.521Z,19.31
2018-06-19T07:44:45.428Z,19.37
2018-06-19T07:45:45.390Z,19.40
2018-06-19T07:46:45.376Z,19.41
2018-06-19T07:47:45.356Z,19.39
2018-06-19T07:48:45.260Z,19.39
2018-06-19T07:49:45.212Z,19.52
2018-06-19T07:50:45.168Z,19.52
2018-06-19T07:51:45.126Z,19.55
2018-06-19T07:52:45.116Z,19.62
2018-06-19T07:53:45.046Z,19.71
2018-06-19T07:54:45.022Z,19.74
2018-06-19T07:55:44.955Z,19.76
2018-06-19T07:56:44.907Z,19.94
2018-06-19T07:57:44.860Z,20.04
2018-06-19T07:58:44.821Z,20.24
2018-06-19T07:59:44.804Z,20.37
2018-06-19T08:00:44.734Z,20.39
2018-06-19T08:01:44.691Z,20.50
2018-06-19T08:02:44.651Z,20.60
2018-06-19T08:03:44.601Z,20.63
2018-06-19T08:04:44.594Z,20.74
2018-06-19T08:05:44.516Z,20.70
2018-06-19T08:06:44.473Z,20.80
2018-06-19T08:07:44.433Z,20.80
2018-06-19T08:08:44.389Z,20.77
2018-06-19T08:09:44.384Z,20.80
2018-06-19T08:10:44.301Z,20.84
2018-06-19T08:11:44.262Z,20.82
2018-06-19T08:12:44.222Z,20.87
2018-06-19T08:13:44.173Z,20.92
2018-06-19T08:14:44.161Z,21.15
2018-06-19T08:15:44.093Z,21.29
2018-06-19T08:16:44.048Z,21.21
2018-06-19T08:17:44.003Z,21.37
2018-06-19T08:18:43.963Z,21.45
2018-06-19T08:19:43.951Z,21.45
2018-06-19T08:20:43.877Z,21.40
2018-06-19T08:21:43.867Z,21.51
2018-06-19T08:22:43.885Z,21.70
2018-06-19T08:23:43.749Z,21.80
2018-06-19T08:24:43.706Z,21.85
2018-06-19T08:25:43.664Z,21.69
2018-06-19T08:26:43.626Z,21.67
2018-06-19T08:27:43.614Z,21.66
2018-06-19T08:28:43.538Z,21.42
2018-06-19T08:29:43.497Z,21.36
2018-06-19T08:30:43.456Z,21.40
2018-06-19T08:31:43.443Z,21.48
2018-06-19T08:32:43.372Z,21.70
2018-06-19T08:33:43.364Z,21.70
2018-06-19T08:34:43.289Z,21.60
2018-06-19T08:35:43.246Z,21.67
2018-06-19T08:36:43.204Z,21.54
2018-06-19T08:37:43.170Z,21.70
2018-06-19T08:38:43.151Z,21.67
2018-06-19T08:39:43.084Z,21.62
2018-06-19T08:40:43.070Z,21.57
2018-06-19T08:41:43.004Z,21.48
2018-06-19T08:42:42.989Z,21.35
2018-06-19T08:43:42.911Z,21.40
2018-06-19T08:44:42.872Z,21.67
2018-06-19T08:45:42.877Z,21.98
2018-06-19T08:46:42.787Z,22.29
2018-06-19T08:47:42.742Z,22.50
2018-06-19T08:48:42.706Z,22.65
2018-06-19T08:49:42.663Z,22.78
2018-06-19T08:50:42.660Z,22.98
2018-06-19T08:51:42.622Z,23.27
2018-06-19T08:52:42.540Z,23.39
2018-06-19T08:53:42.495Z,23.40
2018-06-19T08:54:42.454Z,23.36
2018-06-19T08:55:42.415Z,23.31
2018-06-19T08:56:42.410Z,23.25
2018-06-19T08:57:42.329Z,23.08
2018-06-19T08:58:42.288Z,22.90
2018-06-19T08:59:42.248Z,22.81
2018-06-19T09:00:42.205Z,22.93
2018-06-19T09:01:42.212Z,23.10
2018-06-19T09:02:42.124Z,23.13
2018-06-19T09:03:42.090Z,23.15
2018-06-19T09:04:42.043Z,23.24
2018-06-19T09:05:42.005Z,23.51
2018-06-19T09:06:41.993Z,23.74
2018-06-19T09:07:41.921Z,24.17
2018-06-19T09:08:41.913Z,24.11
2018-06-19T09:09:41.838Z,24.33
2018-06-19T09:10:41.801Z,24.29
2018-06-19T09:11:41.760Z,24.17
2018-06-19T09:12:41.751Z,24.13
2018-06-19T09:13:41.678Z,24.01
2018-06-19T09:14:41.637Z,23.88
2018-06-19T09:15:41.605Z,23.77
2018-06-19T09:16:41.554Z,23.76
2018-06-19T09:17:41.546Z,23.81
2018-06-19T09:18:41.475Z,24.10
2018-06-19T09:19:41.439Z,24.03
2018-06-19T09:20:41.394Z,23.98
2018-06-19T09:21:41.366Z,23.95
2018-06-19T09:22:41.350Z,23.83
2018-06-19T09:23:41.274Z,23.68
2018-06-19T09:24:41.234Z,23.59
2018-06-19T09:25:41.195Z,23.56
2018-06-19T09:26:41.158Z,23.50
2018-06-19T09:27:41.157Z,23.51
2018-06-19T09:28:41.073Z,23.41
2018-06-19T09:29:41.033Z,23.34
2018-06-19T09:30:40.992Z,23.36
2018-06-19T09:31:41.026Z,23.32
2018-06-19T09:32:40.951Z,23.43
2018-06-19T09:33:40.870Z,23.63
2018-06-19T09:34:40.831Z,23.92
2018-06-19T09:35:40.792Z,23.98
2018-06-19T09:36:40.749Z,23.87
2018-06-19T09:37:40.741Z,23.83
2018-06-19T09:38:40.673Z,23.81
2018-06-19T09:39:40.669Z,24.02
2018-06-19T09:40:40.635Z,23.91
2018-06-19T09:41:40.550Z,23.78
2018-06-19T09:42:40.515Z,23.84
2018-06-19T09:43:40.469Z,23.83
2018-06-19T09:44:40.433Z,24.01
2018-06-19T09:45:40.427Z,24.28
2018-06-19T09:46:40.348Z,24.38
2018-06-19T09:47:40.313Z,24.51
2018-06-19T09:48:40.313Z,24.74
2018-06-19T09:49:40.230Z,25.10
2018-06-19T09:50:40.189Z,25.32
2018-06-19T09:51:40.157Z,25.41
2018-06-19T09:52:40.109Z,25.41
2018-06-19T09:53:40.123Z,25.51
2018-06-19T09:54:40.032Z,25.36
2018-06-19T09:55:39.993Z,25.23
2018-06-19T09:56:39.988Z,25.13
2018-06-19T09:57:39.911Z,24.98
2018-06-19T09:58:39.875Z,24.70
2018-06-19T09:59:39.870Z,24.57
2018-06-19T10:00:39.843Z,24.55
2018-06-19T10:01:39.754Z,24.69
2018-06-19T10:02:39.747Z,24.86
2018-06-19T10:03:39.680Z,24.69
2018-06-19T10:04:39.637Z,24.84
2018-06-19T10:05:39.651Z,25.01
2018-06-19T10:06:39.610Z,25.38
2018-06-19T10:07:39.551Z,25.44
2018-06-19T10:08:39.481Z,25.62
2018-06-19T10:09:39.440Z,25.63
2018-06-19T10:10:39.399Z,25.29
2018-06-19T10:11:39.364Z,25.23
2018-06-19T10:12:39.361Z,25.31
2018-06-19T10:13:39.283Z,25.53
2018-06-19T10:14:39.244Z,25.75
2018-06-19T10:15:39.207Z,25.69
2018-06-19T10:16:39.200Z,25.66
2018-06-19T10:17:39.125Z,25.29
2018-06-19T10:18:39.086Z,24.93
2018-06-19T10:19:39.049Z,24.65
2018-06-19T10:20:39.009Z,24.54
2018-06-19T10:21:39.001Z,24.45
2018-06-19T10:22:38.963Z,24.35
2018-06-19T10:23:38.891Z,24.39
2018-06-19T10:24:38.856Z,24.36
2018-06-19T10:25:38.817Z,24.50
2018-06-19T10:26:38.772Z,24.32
2018-06-19T10:27:38.784Z,24.40
2018-06-19T10:28:38.736Z,24.36
2018-06-19T10:29:38.655Z,24.30
2018-06-19T10:30:38.618Z,24.24
2018-06-19T10:31:38.582Z,24.21
2018-06-19T10:32:38.572Z,24.32
2018-06-19T10:33:38.499Z,24.54
2018-06-19T10:34:38.459Z,24.70
2018-06-19T10:35:38.454Z,24.86
2018-06-19T10:36:38.381Z,24.85
2018-06-19T10:37:38.340Z,24.93
2018-06-19T10:38:38.302Z,24.88
2018-06-19T10:39:38.263Z,24.73
2018-06-19T10:40:38.262Z,24.63
2018-06-19T10:41:38.183Z,24.73
2018-06-19T10:42:38.180Z,24.86
2018-06-19T10:43:38.105Z,24.84
2018-06-19T10:44:38.076Z,24.86
2018-06-19T10:45:38.064Z,24.80
2018-06-19T10:46:37.987Z,24.73
2018-06-19T10:47:37.947Z,24.69
2018-06-19T10:48:37.908Z,24.73
2018-06-19T10:49:37.869Z,24.73
2018-06-19T10:50:37.870Z,24.78
2018-06-19T10:51:37.788Z,24.66
2018-06-19T10:52:37.804Z,24.65
2018-06-19T10:53:37.713Z,24.74
2018-06-19T10:54:37.674Z,24.68
2018-06-19T10:55:37.682Z,24.50
2018-06-19T10:56:37.597Z,24.38
2018-06-19T10:57:37.553Z,24.40
2018-06-19T10:58:37.515Z,24.48
2018-06-19T10:59:37.476Z,24.55
2018-06-19T11:00:37.477Z,24.55
2018-06-19T11:01:37.396Z,24.58
2018-06-19T11:02:37.359Z,24.57
2018-06-19T11:03:37.321Z,24.68
2018-06-19T11:04:37.283Z,24.68
2018-06-19T11:05:37.272Z,24.53
2018-06-19T11:06:37.235Z,24.28
2018-06-19T11:07:37.162Z,24.02
2018-06-19T11:08:37.122Z,23.80
2018-06-19T11:09:37.094Z,23.88
2018-06-19T11:10:37.041Z,23.98
2018-06-19T11:11:37.037Z,24.18
2018-06-19T11:12:37.005Z,24.40
2018-06-19T11:13:36.923Z,24.50
2018-06-19T11:14:36.884Z,24.61
2018-06-19T11:15:36.851Z,24.81
2018-06-19T11:16:36.804Z,24.92
2018-06-19T11:17:36.796Z,25.03
2018-06-19T11:18:36.724Z,25.04
2018-06-19T11:19:36.690Z,25.04
2018-06-19T11:20:36.647Z,25.01
2018-06-19T11:21:36.607Z,24.96
2018-06-19T11:22:36.599Z,25.04
2018-06-19T11:23:36.530Z,24.88
2018-06-19T11:24:36.489Z,24.74
2018-06-19T11:25:36.474Z,24.78
2018-06-19T11:26:36.411Z,24.80
2018-06-19T11:27:36.402Z,24.99
2018-06-19T11:28:36.365Z,25.21
2018-06-19T11:29:36.296Z,25.13
2018-06-19T11:30:36.253Z,24.98
2018-06-19T11:31:36.214Z,25.06
2018-06-19T11:32:36.180Z,25.28
2018-06-19T11:33:36.165Z,25.36
2018-06-19T11:34:36.092Z,25.55
2018-06-19T11:35:36.055Z,25.33
2018-06-19T11:36:36.027Z,25.35
2018-06-19T11:37:35.980Z,25.40
2018-06-19T11:38:36.033Z,25.41
2018-06-19T11:39:35.899Z,25.31
2018-06-19T11:40:35.867Z,25.10
2018-06-19T11:41:35.820Z,25.01
2018-06-19T11:42:35.784Z,25.01
2018-06-19T11:43:35.785Z,24.99
2018-06-19T11:44:35.712Z,24.98
2018-06-19T11:45:35.664Z,24.89
2018-06-19T11:46:35.624Z,24.85
2018-06-19T11:47:35.586Z,24.65
2018-06-19T11:48:35.588Z,24.48
2018-06-19T11:49:35.509Z,24.05
2018-06-19T11:50:35.468Z,23.98
2018-06-19T11:51:35.429Z,23.95
2018-06-19T11:52:35.392Z,24.11
2018-06-19T11:53:35.413Z,24.32
2018-06-19T11:54:35.329Z,24.36
2018-06-19T11:55:35.311Z,24.38
2018-06-19T11:56:35.236Z,24.47
2018-06-19T11:57:35.202Z,24.48
2018-06-19T11:58:35.208Z,24.53
2018-06-19T11:59:35.146Z,24.70
2018-06-19T12:00:35.084Z,24.86
2018-06-19T12:01:35.042Z,24.78
2018-06-19T12:02:34.998Z,24.80
2018-06-19T12:03:34.991Z,24.92
2018-06-19T12:04:34.918Z,25.01
2018-06-19T12:05:34.881Z,25.01
2018-06-19T12:06:34.839Z,25.03
2018-06-19T12:07:34.798Z,24.93
2018-06-19T12:08:34.803Z,25.03
2018-06-19T12:09:34.721Z,25.01
2018-06-19T12:10:34.717Z,25.16
2018-06-19T12:11:34.643Z,25.21
2018-06-19T12:12:34.604Z,25.36
2018-06-19T12:13:34.602Z,25.68
2018-06-19T12:14:34.580Z,25.84
2018-06-19T12:15:34.520Z,25.95
2018-06-19T12:16:34.447Z,25.95
2018-06-19T12:17:34.407Z,25.99
2018-06-19T12:18:34.389Z,25.83
2018-06-19T12:19:34.366Z,25.68
2018-06-19T12:20:34.292Z,25.40
2018-06-19T12:21:34.251Z,25.13
2018-06-19T12:22:34.261Z,25.10
2018-06-19T12:23:34.175Z,25.03
2018-06-19T12:24:34.185Z,25.07
2018-06-19T12:25:34.095Z,25.14
2018-06-19T12:26:34.087Z,25.28
2018-06-19T12:27:34.019Z,25.43
2018-06-19T12:28:33.991Z,25.80
2018-06-19T12:29:33.942Z,26.07
2018-06-19T12:30:33.907Z,26.07
2018-06-19T12:31:34.170Z,26.09
2018-06-19T12:32:33.855Z,26.02
2018-06-19T12:33:33.832Z,26.02
2018-06-19T12:34:33.999Z,25.90
2018-06-19T12:35:33.722Z,25.90
2018-06-19T12:36:33.878Z,26.05
2018-06-19T12:37:33.702Z,26.02
2018-06-19T12:38:33.593Z,26.06
2018-06-19T12:39:33.555Z,26.19
2018-06-19T12:40:33.517Z,26.37
2018-06-19T12:41:33.513Z,26.43
2018-06-19T12:42:33.436Z,26.48
2018-06-19T12:43:33.402Z,26.43
2018-06-19T12:44:33.362Z,26.31
2018-06-19T12:45:33.356Z,26.26
2018-06-19T12:46:34.923Z,26.18
2018-06-19T12:47:33.245Z,26.19
2018-06-19T12:48:33.260Z,26.25
2018-06-19T12:49:40.068Z,26.09
2018-06-19T12:50:33.944Z,25.83
2018-06-19T12:51:33.131Z,25.60